sensor_id;sensor_type;location;lat;lon;timestamp;pressure;altitude;pressure_sealevel;temperature;humidity
7966;BME280;4028;43.272;26.932;2022-12-17T00:01:50;98987.38;;;9.55;100.00
7966;BME280;4028;43.272;26.932;2022-12-17T00:04:34;98998.66;;;9.57;100.00
7966;BME280;4028;43.272;26.932;2022-12-17T00:07:18;98991.28;;;9.51;100.00
7966;BME280;4028;43.272;26.932;2022-12-17T00:10:03;98986.56;;;9.55;100.00
7966;BME280;4028;43.272;26.932;2022-12-17T00:12:47;98992.94;;;9.62;100.00
7966;BME280;4028;43.272;26.932;2022-12-17T00:15:31;99000.03;;;9.52;100.00
7966;BME280;4028;43.272;26.932;2022-12-17T00:18:16;98989.91;;;9.47;100.00
7966;BME280;4028;43.272;26.932;2022-12-17T00:21:00;98980.44;;;9.35;100.00
7966;BME280;4028;43.272;26.932;2022-12-17T00:23:46;98989.19;;;9.45;100.00
7966;BME280;4028;43.272;26.932;2022-12-17T00:26:30;98996.13;;;9.46;100.00
7966;BME280;4028;43.272;26.932;2022-12-17T00:29:14;98989.91;;;9.47;100.00
7966;BME280;4028;43.272;26.932;2022-12-17T00:31:59;98991.00;;;9.45;100.00
7966;BME280;4028;43.272;26.932;2022-12-17T00:34:43;98992.25;;;9.41;100.00
7966;BME280;4028;43.272;26.932;2022-12-17T00:37:28;98992.97;;;9.43;100.00
7966;BME280;4028;43.272;26.932;2022-12-17T00:40:12;98986.00;;;9.42;100.00
7966;BME280;4028;43.272;26.932;2022-12-17T00:43:04;99001.31;;;9.38;100.00
7966;BME280;4028;43.272;26.932;2022-12-17T00:45:48;98997.69;;;9.29;100.00
7966;BME280;4028;43.272;26.932;2022-12-17T00:48:33;99027.41;;;9.31;100.00
7966;BME280;4028;43.272;26.932;2022-12-17T00:51:17;99023.81;;;9.32;100.00
7966;BME280;4028;43.272;26.932;2022-12-17T00:54:02;99016.59;;;9.34;100.00
7966;BME280;4028;43.272;26.932;2022-12-17T00:56:46;99014.34;;;9.59;100.00
7966;BME280;4028;43.272;26.932;2022-12-17T00:59:37;99021.88;;;9.63;100.00
7966;BME280;4028;43.272;26.932;2022-12-17T01:02:22;99021.88;;;9.63;100.00
7966;BME280;4028;43.272;26.932;2022-12-17T01:05:06;99014.34;;;9.59;100.00
7966;BME280;4028;43.272;26.932;2022-12-17T01:07:50;99012.53;;;9.59;100.00
7966;BME280;4028;43.272;26.932;2022-12-17T01:10:35;99016.28;;;9.57;100.00
7966;BME280;4028;43.272;26.932;2022-12-17T01:13:19;99017.97;;;9.58;100.00
7966;BME280;4028;43.272;26.932;2022-12-17T01:16:12;99028.81;;;9.55;100.00
7966;BME280;4028;43.272;26.932;2022-12-17T01:18:57;99030.34;;;9.57;100.00
7966;BME280;4028;43.272;26.932;2022-12-17T01:21:42;99026.44;;;9.52;100.00
7966;BME280;4028;43.272;26.932;2022-12-17T01:24:26;99036.31;;;9.50;100.00
7966;BME280;4028;43.272;26.932;2022-12-17T01:27:10;99033.00;;;9.57;100.00
7966;BME280;4028;43.272;26.932;2022-12-17T01:29:54;99027.16;;;9.44;100.00
7966;BME280;4028;43.272;26.932;2022-12-17T01:32:39;99016.72;;;9.33;100.00
7966;BME280;4028;43.272;26.932;2022-12-17T01:35:23;99004.22;;;9.25;100.00
7966;BME280;4028;43.272;26.932;2022-12-17T01:38:17;99021.03;;;9.44;100.00
7966;BME280;4028;43.272;26.932;2022-12-17T01:41:03;99021.31;;;9.41;100.00
7966;BME280;4028;43.272;26.932;2022-12-17T01:43:47;99033.56;;;9.32;100.00
7966;BME280;4028;43.272;26.932;2022-12-17T01:46:35;99033.13;;;9.36;100.00
7966;BME280;4028;43.272;26.932;2022-12-17T01:49:21;99041.44;;;9.42;100.00
7966;BME280;4028;43.272;26.932;2022-12-17T01:52:08;99041.34;;;9.33;100.00
7966;BME280;4028;43.272;26.932;2022-12-17T01:54:54;99034.38;;;9.32;100.00
7966;BME280;4028;43.272;26.932;2022-12-17T01:57:39;99041.75;;;9.38;100.00
7966;BME280;4028;43.272;26.932;2022-12-17T02:00:23;99037.16;;;9.41;100.00
7966;BME280;4028;43.272;26.932;2022-12-17T02:03:14;99041.44;;;9.42;100.00
7966;BME280;4028;43.272;26.932;2022-12-17T02:09:06;99037.16;;;9.41;100.00
7966;BME280;4028;43.272;26.932;2022-12-17T02:15:00;99039.78;;;9.41;100.00
7966;BME280;4028;43.272;26.932;2022-12-17T02:17:50;99037.56;;;9.36;100.00
7966;BME280;4028;43.272;26.932;2022-12-17T02:20:48;99023.81;;;9.32;100.00
7966;BME280;4028;43.272;26.932;2022-12-17T02:29:13;99026.16;;;9.26;100.00
7966;BME280;4028;43.272;26.932;2022-12-17T02:31:57;99039.38;;;9.35;100.00
7966;BME280;4028;43.272;26.932;2022-12-17T02:34:44;99039.66;;;9.32;100.00
7966;BME280;4028;43.272;26.932;2022-12-17T02:37:28;99033.56;;;9.32;100.00
7966;BME280;4028;43.272;26.932;2022-12-17T02:40:12;99022.84;;;9.43;100.00
7966;BME280;4028;43.272;26.932;2022-12-17T02:42:57;99028.97;;;9.44;100.00
7966;BME280;4028;43.272;26.932;2022-12-17T02:45:42;99027.72;;;9.38;100.00
7966;BME280;4028;43.272;26.932;2022-12-17T02:48:27;99023.41;;;9.37;100.00
7966;BME280;4028;43.272;26.932;2022-12-17T02:51:11;99026.88;;;9.37;100.00
7966;BME280;4028;43.272;26.932;2022-12-17T02:54:01;99021.88;;;9.34;100.00
7966;BME280;4028;43.272;26.932;2022-12-17T02:56:46;99024.91;;;9.30;100.00
7966;BME280;4028;43.272;26.932;2022-12-17T02:59:30;99023.53;;;9.26;100.00
7966;BME280;4028;43.272;26.932;2022-12-17T03:02:14;99033.00;;;9.28;100.00
7966;BME280;4028;43.272;26.932;2022-12-17T03:04:58;99032.28;;;9.26;100.00
7966;BME280;4028;43.272;26.932;2022-12-17T03:07:45;99028.13;;;9.24;100.00
7966;BME280;4028;43.272;26.932;2022-12-17T03:10:29;99022.56;;;9.17;100.00
7966;BME280;4028;43.272;26.932;2022-12-17T03:13:23;99030.75;;;9.14;100.00
7966;BME280;4028;43.272;26.932;2022-12-17T03:16:10;99009.63;;;9.04;100.00
7966;BME280;4028;43.272;26.932;2022-12-17T03:18:55;99027.69;;;9.09;100.00
7966;BME280;4028;43.272;26.932;2022-12-17T03:21:38;99013.81;;;9.07;100.00
7966;BME280;4028;43.272;26.932;2022-12-17T03:24:22;99013.38;;;9.02;100.00
7966;BME280;4028;43.272;26.932;2022-12-17T03:27:07;99003.38;;;8.96;100.00
7966;BME280;4028;43.272;26.932;2022-12-17T03:29:50;99010.44;;;8.95;100.00
7966;BME280;4028;43.272;26.932;2022-12-17T03:32:34;99004.50;;;9.03;100.00
7966;BME280;4028;43.272;26.932;2022-12-17T03:35:18;98994.06;;;9.01;100.00
7966;BME280;4028;43.272;26.932;2022-12-17T03:38:07;98994.91;;;8.92;100.00
7966;BME280;4028;43.272;26.932;2022-12-17T03:40:51;98996.81;;;8.90;100.00
7966;BME280;4028;43.272;26.932;2022-12-17T03:43:35;98992.81;;;8.86;100.00
7966;BME280;4028;43.272;26.932;2022-12-17T03:46:19;98997.69;;;8.91;100.00
7966;BME280;4028;43.272;26.932;2022-12-17T03:49:03;98999.91;;;8.85;100.00
7966;BME280;4028;43.272;26.932;2022-12-17T03:51:51;99003.78;;;8.81;100.00
7966;BME280;4028;43.272;26.932;2022-12-17T03:54:36;99000.81;;;8.75;100.00
7966;BME280;4028;43.272;26.932;2022-12-17T03:57:20;98997.09;;;8.77;100.00
7966;BME280;4028;43.272;26.932;2022-12-17T04:00:04;98992.91;;;8.75;100.00
7966;BME280;4028;43.272;26.932;2022-12-17T04:02:48;99001.38;;;8.78;100.00
7966;BME280;4028;43.272;26.932;2022-12-17T04:05:32;98997.78;;;8.79;100.00
7966;BME280;4028;43.272;26.932;2022-12-17T04:08:16;98995.13;;;8.79;100.00
7966;BME280;4028;43.272;26.932;2022-12-17T04:11:00;98998.63;;;8.70;100.00
7966;BME280;4028;43.272;26.932;2022-12-17T04:13:44;98989.16;;;8.68;100.00
7966;BME280;4028;43.272;26.932;2022-12-17T04:16:28;98991.63;;;8.69;100.00
7966;BME280;4028;43.272;26.932;2022-12-17T04:19:12;98978.59;;;8.68;100.00
7966;BME280;4028;43.272;26.932;2022-12-17T04:21:58;98979.97;;;8.62;100.00
7966;BME280;4028;43.272;26.932;2022-12-17T04:24:42;98977.22;;;8.73;100.00
7966;BME280;4028;43.272;26.932;2022-12-17T04:27:25;98965.25;;;8.69;100.00
7966;BME280;4028;43.272;26.932;2022-12-17T04:30:10;98952.22;;;8.68;100.00
7966;BME280;4028;43.272;26.932;2022-12-17T04:32:54;98972.50;;;8.67;100.00
7966;BME280;4028;43.272;26.932;2022-12-17T04:35:38;98970.50;;;8.59;100.00
7966;BME280;4028;43.272;26.932;2022-12-17T04:38:22;98957.50;;;8.68;100.00
7966;BME280;4028;43.272;26.932;2022-12-17T04:41:06;98966.78;;;8.62;100.00
7966;BME280;4028;43.272;26.932;2022-12-17T04:43:50;98964.44;;;8.69;100.00
7966;BME280;4028;43.272;26.932;2022-12-17T04:46:34;98952.34;;;8.56;100.00
7966;BME280;4028;43.272;26.932;2022-12-17T04:49:17;98952.19;;;8.48;100.00
7966;BME280;4028;43.272;26.932;2022-12-17T04:52:01;98954.81;;;8.48;100.00
7966;BME280;4028;43.272;26.932;2022-12-17T04:54:56;98958.03;;;8.52;100.00
7966;BME280;4028;43.272;26.932;2022-12-17T04:57:40;98943.47;;;8.57;100.00
7966;BME280;4028;43.272;26.932;2022-12-17T05:00:24;98946.34;;;8.54;100.00
7966;BME280;4028;43.272;26.932;2022-12-17T05:03:11;98945.09;;;8.49;100.00
7966;BME280;4028;43.272;26.932;2022-12-17T05:05:55;98924.25;;;8.36;100.00
7966;BME280;4028;43.272;26.932;2022-12-17T05:08:39;98936.94;;;8.52;100.00
7966;BME280;4028;43.272;26.932;2022-12-17T05:11:26;98945.94;;;8.49;100.00
7966;BME280;4028;43.272;26.932;2022-12-17T05:14:11;98930.97;;;8.50;100.00
7966;BME280;4028;43.272;26.932;2022-12-17T05:16:54;98944.16;;;8.59;100.00
7966;BME280;4028;43.272;26.932;2022-12-17T05:19:38;98940.00;;;8.57;100.00
7966;BME280;4028;43.272;26.932;2022-12-17T05:22:23;98935.13;;;8.52;100.00
7966;BME280;4028;43.272;26.932;2022-12-17T05:25:09;98930.97;;;8.50;100.00
7966;BME280;4028;43.272;26.932;2022-12-17T05:27:54;98931.78;;;8.50;100.00
7966;BME280;4028;43.272;26.932;2022-12-17T05:30:38;98939.00;;;8.58;100.00
7966;BME280;4028;43.272;26.932;2022-12-17T05:33:22;98931.78;;;8.50;100.00
7966;BME280;4028;43.272;26.932;2022-12-17T05:36:13;98932.88;;;8.48;100.00
7966;BME280;4028;43.272;26.932;2022-12-17T05:38:57;98929.44;;;8.57;100.00
7966;BME280;4028;43.272;26.932;2022-12-17T05:41:42;98938.44;;;8.54;100.00
7966;BME280;4028;43.272;26.932;2022-12-17T05:44:27;98929.00;;;8.52;100.00
7966;BME280;4028;43.272;26.932;2022-12-17T05:47:11;98944.00;;;8.51;100.00
7966;BME280;4028;43.272;26.932;2022-12-17T05:49:55;98929.00;;;8.52;100.00
7966;BME280;4028;43.272;26.932;2022-12-17T05:52:40;98924.00;;;8.49;100.00
7966;BME280;4028;43.272;26.932;2022-12-17T05:55:24;98925.25;;;8.54;100.00
7966;BME280;4028;43.272;26.932;2022-12-17T05:58:09;98923.47;;;8.55;100.00
7966;BME280;4028;43.272;26.932;2022-12-17T06:00:59;98916.41;;;8.55;100.00
7966;BME280;4028;43.272;26.932;2022-12-17T06:03:43;98909.59;;;8.53;100.00
7966;BME280;4028;43.272;26.932;2022-12-17T06:06:27;98912.78;;;8.56;100.00
7966;BME280;4028;43.272;26.932;2022-12-17T06:09:12;98905.44;;;8.50;100.00
7966;BME280;4028;43.272;26.932;2022-12-17T06:11:56;98912.94;;;8.55;100.00
7966;BME280;4028;43.272;26.932;2022-12-17T06:14:40;98914.59;;;8.66;100.00
7966;BME280;4028;43.272;26.932;2022-12-17T06:17:24;98899.44;;;8.58;100.00
7966;BME280;4028;43.272;26.932;2022-12-17T06:20:13;98919.31;;;8.62;100.00
7966;BME280;4028;43.272;26.932;2022-12-17T06:23:03;98915.56;;;8.65;100.00
7966;BME280;4028;43.272;26.932;2022-12-17T06:25:47;98889.88;;;8.57;100.00
7966;BME280;4028;43.272;26.932;2022-12-17T06:28:31;98895.59;;;8.81;100.00
7966;BME280;4028;43.272;26.932;2022-12-17T06:31:15;98907.66;;;8.94;100.00
7966;BME280;4028;43.272;26.932;2022-12-17T06:34:00;98922.53;;;9.04;100.00
7966;BME280;4028;43.272;26.932;2022-12-17T06:36:44;98909.75;;;9.09;100.00
7966;BME280;4028;43.272;26.932;2022-12-17T06:39:29;98920.19;;;9.11;100.00
7966;BME280;4028;43.272;26.932;2022-12-17T06:42:13;98921.25;;;9.37;100.00
7966;BME280;4028;43.272;26.932;2022-12-17T06:44:58;98900.97;;;9.38;100.00
7966;BME280;4028;43.272;26.932;2022-12-17T06:47:42;98902.06;;;9.82;100.00
7966;BME280;4028;43.272;26.932;2022-12-17T06:50:26;98893.63;;;10.97;100.00
7966;BME280;4028;43.272;26.932;2022-12-17T06:53:11;98899.31;;;11.98;100.00
7966;BME280;4028;43.272;26.932;2022-12-17T06:56:01;98905.34;;;12.83;100.00
7966;BME280;4028;43.272;26.932;2022-12-17T06:58:45;98914.69;;;13.52;100.00
7966;BME280;4028;43.272;26.932;2022-12-17T07:01:29;98885.28;;;14.01;100.00
7966;BME280;4028;43.272;26.932;2022-12-17T07:04:13;98905.88;;;14.47;100.00
7966;BME280;4028;43.272;26.932;2022-12-17T07:07:17;98890.34;;;14.67;100.00
7966;BME280;4028;43.272;26.932;2022-12-17T07:10:02;98885.66;;;15.15;100.00
7966;BME280;4028;43.272;26.932;2022-12-17T07:12:46;98883.94;;;15.22;100.00
7966;BME280;4028;43.272;26.932;2022-12-17T07:15:30;98894.78;;;15.35;100.00
7966;BME280;4028;43.272;26.932;2022-12-17T07:18:14;98915.44;;;15.41;100.00
7966;BME280;4028;43.272;26.932;2022-12-17T07:20:58;98898.91;;;15.46;100.00
7966;BME280;4028;43.272;26.932;2022-12-17T07:23:42;98909.25;;;15.64;100.00
7966;BME280;4028;43.272;26.932;2022-12-17T07:26:26;98890.66;;;15.70;100.00
7966;BME280;4028;43.272;26.932;2022-12-17T07:29:10;98897.66;;;15.71;100.00
7966;BME280;4028;43.272;26.932;2022-12-17T07:31:54;98891.06;;;15.82;100.00
7966;BME280;4028;43.272;26.932;2022-12-17T07:34:38;98902.72;;;15.81;100.00
7966;BME280;4028;43.272;26.932;2022-12-17T07:37:22;98894.06;;;15.79;100.00
7966;BME280;4028;43.272;26.932;2022-12-17T07:40:06;98898.47;;;15.86;100.00
7966;BME280;4028;43.272;26.932;2022-12-17T07:42:51;98904.28;;;15.90;100.00
7966;BME280;4028;43.272;26.932;2022-12-17T07:45:34;98910.28;;;15.92;100.00
7966;BME280;4028;43.272;26.932;2022-12-17T07:48:18;98909.16;;;16.01;100.00
7966;BME280;4028;43.272;26.932;2022-12-17T07:51:02;98909.44;;;16.06;100.00
7966;BME280;4028;43.272;26.932;2022-12-17T07:53:47;98914.78;;;16.21;100.00
7966;BME280;4028;43.272;26.932;2022-12-17T07:56:31;98919.34;;;16.27;100.00
7966;BME280;4028;43.272;26.932;2022-12-17T07:59:15;98927.22;;;16.29;100.00
7966;BME280;4028;43.272;26.932;2022-12-17T08:01:59;98931.59;;;16.36;100.00
7966;BME280;4028;43.272;26.932;2022-12-17T08:04:43;98930.97;;;16.34;100.00
7966;BME280;4028;43.272;26.932;2022-12-17T08:07:27;98921.13;;;16.35;100.00
7966;BME280;4028;43.272;26.932;2022-12-17T08:10:11;98945.72;;;16.67;100.00
7966;BME280;4028;43.272;26.932;2022-12-17T08:12:56;98938.94;;;16.79;100.00
7966;BME280;4028;43.272;26.932;2022-12-17T08:15:40;98947.03;;;16.85;100.00
7966;BME280;4028;43.272;26.932;2022-12-17T08:18:24;98937.03;;;16.94;100.00
7966;BME280;4028;43.272;26.932;2022-12-17T08:21:08;98931.25;;;16.91;100.00
7966;BME280;4028;43.272;26.932;2022-12-17T08:23:52;98931.44;;;17.10;100.00
7966;BME280;4028;43.272;26.932;2022-12-17T08:26:41;98931.94;;;16.99;100.00
7966;BME280;4028;43.272;26.932;2022-12-17T08:29:41;98926.28;;;17.09;100.00
7966;BME280;4028;43.272;26.932;2022-12-17T08:32:25;98940.91;;;17.13;100.00
7966;BME280;4028;43.272;26.932;2022-12-17T08:35:10;98926.59;;;17.21;100.00
7966;BME280;4028;43.272;26.932;2022-12-17T08:38:00;98917.25;;;17.31;100.00
7966;BME280;4028;43.272;26.932;2022-12-17T08:40:44;98915.91;;;17.21;100.00
7966;BME280;4028;43.272;26.932;2022-12-17T08:43:29;98906.41;;;17.18;100.00
7966;BME280;4028;43.272;26.932;2022-12-17T08:46:14;98914.75;;;17.30;100.00
7966;BME280;4028;43.272;26.932;2022-12-17T08:48:58;98917.03;;;17.33;100.00
7966;BME280;4028;43.272;26.932;2022-12-17T08:51:42;98908.66;;;17.36;100.00
7966;BME280;4028;43.272;26.932;2022-12-17T08:54:26;98899.75;;;17.57;100.00
7966;BME280;4028;43.272;26.932;2022-12-17T08:57:10;98886.59;;;17.83;100.00
7966;BME280;4028;43.272;26.932;2022-12-17T08:59:54;98874.88;;;17.91;100.00
7966;BME280;4028;43.272;26.932;2022-12-17T09:02:38;98876.59;;;18.05;100.00
7966;BME280;4028;43.272;26.932;2022-12-17T09:05:22;98875.81;;;18.11;100.00
7966;BME280;4028;43.272;26.932;2022-12-17T09:08:06;98858.19;;;18.37;100.00
7966;BME280;4028;43.272;26.932;2022-12-17T09:10:53;98853.28;;;18.47;100.00
7966;BME280;4028;43.272;26.932;2022-12-17T09:13:38;98864.88;;;18.54;100.00
7966;BME280;4028;43.272;26.932;2022-12-17T09:16:22;98873.59;;;18.76;100.00
7966;BME280;4028;43.272;26.932;2022-12-17T09:19:09;98864.13;;;18.80;100.00
7966;BME280;4028;43.272;26.932;2022-12-17T09:21:53;98869.28;;;18.88;100.00
7966;BME280;4028;43.272;26.932;2022-12-17T09:24:37;98865.59;;;18.96;100.00
7966;BME280;4028;43.272;26.932;2022-12-17T09:27:21;98868.28;;;19.22;100.00
7966;BME280;4028;43.272;26.932;2022-12-17T09:30:05;98873.22;;;19.39;100.00
7966;BME280;4028;43.272;26.932;2022-12-17T09:32:49;98889.75;;;19.42;100.00
7966;BME280;4028;43.272;26.932;2022-12-17T09:35:35;98886.03;;;19.43;100.00
7966;BME280;4028;43.272;26.932;2022-12-17T09:38:19;98886.84;;;19.44;100.00
7966;BME280;4028;43.272;26.932;2022-12-17T09:44:27;98921.94;;;19.36;100.00
7966;BME280;4028;43.272;26.932;2022-12-17T09:48:03;98916.56;;;19.22;100.00
7966;BME280;4028;43.272;26.932;2022-12-17T09:50:50;98921.50;;;19.06;100.00
7966;BME280;4028;43.272;26.932;2022-12-17T09:53:37;98915.09;;;19.13;100.00
7966;BME280;4028;43.272;26.932;2022-12-17T09:56:24;98923.56;;;19.10;100.00
7966;BME280;4028;43.272;26.932;2022-12-17T09:59:17;98931.00;;;19.21;100.00
7966;BME280;4028;43.272;26.932;2022-12-17T10:02:26;98932.25;;;19.26;100.00
7966;BME280;4028;43.272;26.932;2022-12-17T10:05:20;98956.22;;;19.47;100.00
7966;BME280;4028;43.272;26.932;2022-12-17T10:08:20;98953.13;;;19.50;100.00
7966;BME280;4028;43.272;26.932;2022-12-17T10:11:18;98967.16;;;19.52;100.00
7966;BME280;4028;43.272;26.932;2022-12-17T10:14:31;98964.91;;;19.62;100.00
7966;BME280;4028;43.272;26.932;2022-12-17T10:17:20;98966.56;;;19.77;100.00
7966;BME280;4028;43.272;26.932;2022-12-17T10:21:13;98982.25;;;19.80;100.00
7966;BME280;4028;43.272;26.932;2022-12-17T10:23:32;98979.97;;;19.50;100.00
7966;BME280;4028;43.272;26.932;2022-12-17T10:26:18;98986.94;;;19.38;100.00
7966;BME280;4028;43.272;26.932;2022-12-17T10:29:08;99010.47;;;19.42;100.00
7966;BME280;4028;43.272;26.932;2022-12-17T10:31:54;99055.00;;;19.17;100.00
7966;BME280;4028;43.272;26.932;2022-12-17T10:34:44;99074.44;;;18.22;100.00
7966;BME280;4028;43.272;26.932;2022-12-17T10:37:30;99084.34;;;17.57;100.00
7966;BME280;4028;43.272;26.932;2022-12-17T10:40:26;99089.88;;;17.19;100.00
7966;BME280;4028;43.272;26.932;2022-12-17T10:43:27;99087.63;;;16.86;100.00
7966;BME280;4028;43.272;26.932;2022-12-17T10:46:21;99081.47;;;16.19;100.00
7966;BME280;4028;43.272;26.932;2022-12-17T10:49:11;99085.47;;;16.00;100.00
7966;BME280;4028;43.272;26.932;2022-12-17T10:52:29;99102.69;;;15.74;100.00
7966;BME280;4028;43.272;26.932;2022-12-17T10:55:35;99103.94;;;15.64;100.00
7966;BME280;4028;43.272;26.932;2022-12-17T10:58:24;99112.25;;;15.29;100.00
7966;BME280;4028;43.272;26.932;2022-12-17T11:01:17;99100.56;;;15.07;100.00
7966;BME280;4028;43.272;26.932;2022-12-17T11:04:02;99101.34;;;14.77;100.00
7966;BME280;4028;43.272;26.932;2022-12-17T11:06:49;99104.75;;;15.02;100.00
7966;BME280;4028;43.272;26.932;2022-12-17T11:09:46;99100.16;;;15.19;100.00
7966;BME280;4028;43.272;26.932;2022-12-17T11:15:46;99098.72;;;15.08;100.00
7966;BME280;4028;43.272;26.932;2022-12-17T11:21:46;99085.81;;;15.20;100.00
7966;BME280;4028;43.272;26.932;2022-12-17T11:24:38;99082.00;;;15.22;100.00
7966;BME280;4028;43.272;26.932;2022-12-17T11:27:32;99064.78;;;15.33;100.00
7966;BME280;4028;43.272;26.932;2022-12-17T11:30:19;99073.03;;;15.46;100.00
7966;BME280;4028;43.272;26.932;2022-12-17T11:33:29;99075.47;;;15.56;100.00
7966;BME280;4028;43.272;26.932;2022-12-17T11:36:22;99077.91;;;15.66;100.00
7966;BME280;4028;43.272;26.932;2022-12-17T11:42:13;99082.47;;;15.80;100.00
7966;BME280;4028;43.272;26.932;2022-12-17T11:47:58;99081.63;;;15.56;100.00
7966;BME280;4028;43.272;26.932;2022-12-17T11:56:44;99085.13;;;15.80;100.00
7966;BME280;4028;43.272;26.932;2022-12-17T11:59:36;99091.16;;;15.82;100.00
7966;BME280;4028;43.272;26.932;2022-12-17T12:03:16;99084.25;;;15.88;100.00
7966;BME280;4028;43.272;26.932;2022-12-17T12:05:48;99088.19;;;15.77;100.00
7966;BME280;4028;43.272;26.932;2022-12-17T12:11:43;99127.81;;;15.80;100.00
7966;BME280;4028;43.272;26.932;2022-12-17T12:14:44;99139.50;;;15.79;100.00
7966;BME280;4028;43.272;26.932;2022-12-17T12:26:28;99177.28;;;15.91;100.00
7966;BME280;4028;43.272;26.932;2022-12-17T12:35:18;99097.25;;;15.05;100.00
7966;BME280;4028;43.272;26.932;2022-12-17T12:38:04;99167.41;;;15.29;100.00
7966;BME280;4028;43.272;26.932;2022-12-17T12:40:59;99169.06;;;15.30;100.00
7966;BME280;4028;43.272;26.932;2022-12-17T12:43:53;99166.72;;;15.35;100.00
7966;BME280;4028;43.272;26.932;2022-12-17T12:47:00;99173.69;;;15.44;100.00
7966;BME280;4028;43.272;26.932;2022-12-17T12:50:16;99181.44;;;15.31;100.00
7966;BME280;4028;43.272;26.932;2022-12-17T12:53:03;99216.59;;;15.18;100.00
7966;BME280;4028;43.272;26.932;2022-12-17T12:55:48;99213.94;;;15.26;100.00
7966;BME280;4028;43.272;26.932;2022-12-17T12:58:38;99202.91;;;15.29;100.00
7966;BME280;4028;43.272;26.932;2022-12-17T13:01:31;99183.50;;;15.04;100.00
7966;BME280;4028;43.272;26.932;2022-12-17T13:07:28;99226.78;;;15.15;100.00
7966;BME280;4028;43.272;26.932;2022-12-17T13:09:56;99209.16;;;14.97;100.00
7966;BME280;4028;43.272;26.932;2022-12-17T13:12:27;99199.03;;;14.93;100.00
7966;BME280;4028;43.272;26.932;2022-12-17T13:17:35;99210.78;;;15.15;100.00
7966;BME280;4028;43.272;26.932;2022-12-17T13:20:36;99216.97;;;15.07;100.00
7966;BME280;4028;43.272;26.932;2022-12-17T13:25:34;99212.28;;;15.17;100.00
7966;BME280;4028;43.272;26.932;2022-12-17T13:28:00;99219.06;;;15.28;100.00
7966;BME280;4028;43.272;26.932;2022-12-17T13:30:33;99219.72;;;15.30;100.00
7966;BME280;4028;43.272;26.932;2022-12-17T13:36:11;99236.00;;;15.51;100.00
7966;BME280;4028;43.272;26.932;2022-12-17T13:38:43;99238.78;;;15.58;100.00
7966;BME280;4028;43.272;26.932;2022-12-17T13:41:17;99225.69;;;15.40;100.00
7966;BME280;4028;43.272;26.932;2022-12-17T13:43:47;99234.81;;;15.54;100.00
7966;BME280;4028;43.272;26.932;2022-12-17T13:46:21;99231.44;;;15.60;100.00
7966;BME280;4028;43.272;26.932;2022-12-17T13:48:59;99243.47;;;15.64;100.00
7966;BME280;4028;43.272;26.932;2022-12-17T13:51:28;99235.44;;;15.64;100.00
7966;BME280;4028;43.272;26.932;2022-12-17T13:53:56;99244.00;;;15.51;100.00
7966;BME280;4028;43.272;26.932;2022-12-17T13:56:25;99233.28;;;15.59;100.00
7966;BME280;4028;43.272;26.932;2022-12-17T13:58:53;99227.31;;;15.49;100.00
7966;BME280;4028;43.272;26.932;2022-12-17T14:01:19;99197.97;;;15.57;100.00
7966;BME280;4028;43.272;26.932;2022-12-17T14:03:49;99193.78;;;15.63;100.00
7966;BME280;4028;43.272;26.932;2022-12-17T14:06:16;99196.13;;;15.66;100.00
7966;BME280;4028;43.272;26.932;2022-12-17T14:08:42;99190.44;;;15.61;100.00
7966;BME280;4028;43.272;26.932;2022-12-17T14:11:10;99193.28;;;15.59;100.00
7966;BME280;4028;43.272;26.932;2022-12-17T14:13:55;99176.94;;;15.63;100.00
7966;BME280;4028;43.272;26.932;2022-12-17T14:16:21;99166.78;;;15.58;100.00
7966;BME280;4028;43.272;26.932;2022-12-17T14:18:52;99169.94;;;15.62;100.00
7966;BME280;4028;43.272;26.932;2022-12-17T14:21:19;99172.94;;;15.58;100.00
7966;BME280;4028;43.272;26.932;2022-12-17T14:23:47;99171.81;;;15.53;100.00
7966;BME280;4028;43.272;26.932;2022-12-17T14:26:14;99164.00;;;15.51;100.00
7966;BME280;4028;43.272;26.932;2022-12-17T14:28:49;99167.00;;;15.48;100.00
7966;BME280;4028;43.272;26.932;2022-12-17T14:31:22;99165.75;;;15.36;100.00
7966;BME280;4028;43.272;26.932;2022-12-17T14:34:09;99176.41;;;15.36;100.00
7966;BME280;4028;43.272;26.932;2022-12-17T14:36:39;99174.09;;;15.25;100.00
7966;BME280;4028;43.272;26.932;2022-12-17T14:39:30;99174.63;;;15.20;100.00
7966;BME280;4028;43.272;26.932;2022-12-17T14:42:29;99183.66;;;15.11;100.00
7966;BME280;4028;43.272;26.932;2022-12-17T14:45:20;99190.66;;;15.04;100.00
7966;BME280;4028;43.272;26.932;2022-12-17T14:47:56;99181.88;;;14.87;100.00
7966;BME280;4028;43.272;26.932;2022-12-17T14:50:34;99185.25;;;14.81;100.00
7966;BME280;4028;43.272;26.932;2022-12-17T14:53:03;99196.22;;;14.78;100.00
7966;BME280;4028;43.272;26.932;2022-12-17T14:55:53;99188.22;;;14.78;100.00
7966;BME280;4028;43.272;26.932;2022-12-17T14:58:21;99186.75;;;14.67;100.00
7966;BME280;4028;43.272;26.932;2022-12-17T15:03:27;99189.09;;;14.62;100.00
7966;BME280;4028;43.272;26.932;2022-12-17T15:05:57;99185.94;;;14.59;100.00
7966;BME280;4028;43.272;26.932;2022-12-17T15:08:30;99170.63;;;14.61;100.00
7966;BME280;4028;43.272;26.932;2022-12-17T15:10:57;99174.47;;;14.50;100.00
7966;BME280;4028;43.272;26.932;2022-12-17T15:13:23;99191.91;;;14.44;100.00
7966;BME280;4028;43.272;26.932;2022-12-17T15:15:48;99201.06;;;14.42;100.00
7966;BME280;4028;43.272;26.932;2022-12-17T15:18:13;99202.06;;;14.24;100.00
7966;BME280;4028;43.272;26.932;2022-12-17T15:20:39;99219.53;;;14.27;100.00
7966;BME280;4028;43.272;26.932;2022-12-17T15:23:05;99203.34;;;13.96;100.00
7966;BME280;4028;43.272;26.932;2022-12-17T15:25:30;99240.28;;;14.07;100.00
7966;BME280;4028;43.272;26.932;2022-12-17T15:27:56;99240.13;;;14.00;100.00
7966;BME280;4028;43.272;26.932;2022-12-17T15:30:21;99234.44;;;13.95;100.00
7966;BME280;4028;43.272;26.932;2022-12-17T15:32:47;99223.63;;;13.89;100.00
7966;BME280;4028;43.272;26.932;2022-12-17T15:35:13;99243.75;;;13.91;100.00
7966;BME280;4028;43.272;26.932;2022-12-17T15:37:38;99237.47;;;13.92;100.00
7966;BME280;4028;43.272;26.932;2022-12-17T15:40:05;99240.59;;;13.88;100.00
7966;BME280;4028;43.272;26.932;2022-12-17T15:42:31;99253.69;;;13.81;100.00